sensor_id;sensor_type;location;lat;lon;timestamp;temperature;humidity
50606;DHT22;36557;53.572;10.170;2023-08-31T00:00:34;14.60;99.90
50606;DHT22;36557;53.572;10.170;2023-08-31T00:03:01;14.40;99.90
50606;DHT22;36557;53.572;10.170;2023-08-31T00:05:27;14.50;99.90
50606;DHT22;36557;53.572;10.170;2023-08-31T00:07:54;14.50;99.90
50606;DHT22;36557;53.572;10.170;2023-08-31T00:10:20;14.60;99.90
50606;DHT22;36557;53.572;10.170;2023-08-31T00:12:46;14.60;99.90
50606;DHT22;36557;53.572;10.170;2023-08-31T00:15:11;14.50;99.90
50606;DHT22;36557;53.572;10.170;2023-08-31T00:17:38;14.50;99.90
50606;DHT22;36557;53.572;10.170;2023-08-31T00:20:06;14.60;99.90
50606;DHT22;36557;53.572;10.170;2023-08-31T00:22:33;14.50;99.90
50606;DHT22;36557;53.572;10.170;2023-08-31T00:25:01;14.40;99.90
50606;DHT22;36557;53.572;10.170;2023-08-31T00:27:27;14.50;99.90
50606;DHT22;36557;53.572;10.170;2023-08-31T00:29:55;14.40;99.90
50606;DHT22;36557;53.572;10.170;2023-08-31T00:32:21;14.40;99.90
50606;DHT22;36557;53.572;10.170;2023-08-31T00:34:47;14.50;99.90
50606;DHT22;36557;53.572;10.170;2023-08-31T00:37:13;14.40;99.90
50606;DHT22;36557;53.572;10.170;2023-08-31T00:39:39;14.30;99.90
50606;DHT22;36557;53.572;10.170;2023-08-31T00:42:05;14.30;99.90
50606;DHT22;36557;53.572;10.170;2023-08-31T00:44:30;14.20;99.90
50606;DHT22;36557;53.572;10.170;2023-08-31T00:46:56;14.20;99.90
50606;DHT22;36557;53.572;10.170;2023-08-31T00:49:22;14.20;99.90
50606;DHT22;36557;53.572;10.170;2023-08-31T00:51:49;14.20;99.90
50606;DHT22;36557;53.572;10.170;2023-08-31T00:54:19;14.20;99.90
50606;DHT22;36557;53.572;10.170;2023-08-31T00:56:46;14.20;99.90
50606;DHT22;36557;53.572;10.170;2023-08-31T00:59:17;14.10;99.90
50606;DHT22;36557;53.572;10.170;2023-08-31T01:02:34;14.00;99.90
50606;DHT22;36557;53.572;10.170;2023-08-31T01:10:29;13.80;99.90
50606;DHT22;36557;53.572;10.170;2023-08-31T01:13:21;13.80;99.90
50606;DHT22;36557;53.572;10.170;2023-08-31T01:15:52;13.80;99.90
50606;DHT22;36557;53.572;10.170;2023-08-31T01:18:21;13.70;99.90
50606;DHT22;36557;53.572;10.170;2023-08-31T01:21:16;13.70;99.90
50606;DHT22;36557;53.572;10.170;2023-08-31T01:23:53;13.70;99.90
50606;DHT22;36557;53.572;10.170;2023-08-31T01:26:19;13.60;99.90
50606;DHT22;36557;53.572;10.170;2023-08-31T01:28:46;13.60;99.90
50606;DHT22;36557;53.572;10.170;2023-08-31T01:31:12;13.50;99.90
50606;DHT22;36557;53.572;10.170;2023-08-31T01:33:38;13.50;99.90
50606;DHT22;36557;53.572;10.170;2023-08-31T01:36:51;13.60;99.90
50606;DHT22;36557;53.572;10.170;2023-08-31T01:41:48;13.40;99.90
50606;DHT22;36557;53.572;10.170;2023-08-31T01:44:18;13.40;99.90
50606;DHT22;36557;53.572;10.170;2023-08-31T01:46:53;13.40;99.90
50606;DHT22;36557;53.572;10.170;2023-08-31T01:49:21;13.40;99.90
50606;DHT22;36557;53.572;10.170;2023-08-31T01:51:47;13.30;99.90
50606;DHT22;36557;53.572;10.170;2023-08-31T01:54:13;13.30;99.90
50606;DHT22;36557;53.572;10.170;2023-08-31T01:56:39;13.30;99.90
50606;DHT22;36557;53.572;10.170;2023-08-31T01:59:04;13.20;99.90
50606;DHT22;36557;53.572;10.170;2023-08-31T02:01:32;13.20;99.90
50606;DHT22;36557;53.572;10.170;2023-08-31T02:03:58;13.30;99.90
50606;DHT22;36557;53.572;10.170;2023-08-31T02:06:24;13.30;99.90
50606;DHT22;36557;53.572;10.170;2023-08-31T02:08:49;13.20;99.90
50606;DHT22;36557;53.572;10.170;2023-08-31T02:11:15;13.20;99.90
50606;DHT22;36557;53.572;10.170;2023-08-31T02:13:42;13.10;99.90
50606;DHT22;36557;53.572;10.170;2023-08-31T02:16:07;13.10;99.90
50606;DHT22;36557;53.572;10.170;2023-08-31T02:18:33;13.10;99.90
50606;DHT22;36557;53.572;10.170;2023-08-31T02:20:59;13.10;99.90
50606;DHT22;36557;53.572;10.170;2023-08-31T02:23:24;13.00;99.90
50606;DHT22;36557;53.572;10.170;2023-08-31T02:25:50;12.90;99.90
50606;DHT22;36557;53.572;10.170;2023-08-31T02:28:16;13.00;99.90
50606;DHT22;36557;53.572;10.170;2023-08-31T02:30:44;12.90;99.90
50606;DHT22;36557;53.572;10.170;2023-08-31T02:33:10;12.90;99.90
50606;DHT22;36557;53.572;10.170;2023-08-31T02:35:35;12.90;99.90
50606;DHT22;36557;53.572;10.170;2023-08-31T02:38:01;12.90;99.90
50606;DHT22;36557;53.572;10.170;2023-08-31T02:40:27;12.90;99.90
50606;DHT22;36557;53.572;10.170;2023-08-31T02:42:53;12.80;99.90
50606;DHT22;36557;53.572;10.170;2023-08-31T02:45:19;12.70;99.90
50606;DHT22;36557;53.572;10.170;2023-08-31T02:47:45;12.70;99.90
50606;DHT22;36557;53.572;10.170;2023-08-31T02:50:10;12.70;99.90
50606;DHT22;36557;53.572;10.170;2023-08-31T02:52:36;12.80;99.90
50606;DHT22;36557;53.572;10.170;2023-08-31T02:55:02;12.80;99.90
50606;DHT22;36557;53.572;10.170;2023-08-31T02:57:27;12.60;99.90
50606;DHT22;36557;53.572;10.170;2023-08-31T02:59:56;12.70;99.90
50606;DHT22;36557;53.572;10.170;2023-08-31T03:02:22;12.70;99.90
50606;DHT22;36557;53.572;10.170;2023-08-31T03:04:48;12.60;99.90
50606;DHT22;36557;53.572;10.170;2023-08-31T03:07:14;12.70;99.90
50606;DHT22;36557;53.572;10.170;2023-08-31T03:09:40;12.60;99.90
50606;DHT22;36557;53.572;10.170;2023-08-31T03:12:09;12.50;99.90
50606;DHT22;36557;53.572;10.170;2023-08-31T03:14:38;12.50;99.90
50606;DHT22;36557;53.572;10.170;2023-08-31T03:17:03;12.50;99.90
50606;DHT22;36557;53.572;10.170;2023-08-31T03:19:29;12.50;99.90
50606;DHT22;36557;53.572;10.170;2023-08-31T03:21:55;12.40;99.90
50606;DHT22;36557;53.572;10.170;2023-08-31T03:24:20;12.40;99.90
50606;DHT22;36557;53.572;10.170;2023-08-31T03:26:46;12.40;99.90
50606;DHT22;36557;53.572;10.170;2023-08-31T03:29:12;12.50;99.90
50606;DHT22;36557;53.572;10.170;2023-08-31T03:31:37;12.40;99.90
50606;DHT22;36557;53.572;10.170;2023-08-31T03:34:03;12.40;99.90
50606;DHT22;36557;53.572;10.170;2023-08-31T03:36:29;12.30;99.90
50606;DHT22;36557;53.572;10.170;2023-08-31T03:38:54;12.20;99.90
50606;DHT22;36557;53.572;10.170;2023-08-31T03:41:20;12.20;99.90
50606;DHT22;36557;53.572;10.170;2023-08-31T03:43:46;12.20;99.90
50606;DHT22;36557;53.572;10.170;2023-08-31T03:46:11;12.30;99.90
50606;DHT22;36557;53.572;10.170;2023-08-31T03:48:37;12.30;99.90
50606;DHT22;36557;53.572;10.170;2023-08-31T03:51:03;12.20;99.90
50606;DHT22;36557;53.572;10.170;2023-08-31T03:53:29;12.10;99.90
50606;DHT22;36557;53.572;10.170;2023-08-31T03:55:54;12.10;99.90
50606;DHT22;36557;53.572;10.170;2023-08-31T03:58:20;12.10;99.90
50606;DHT22;36557;53.572;10.170;2023-08-31T04:00:49;12.00;99.90
50606;DHT22;36557;53.572;10.170;2023-08-31T04:03:15;12.00;99.90
50606;DHT22;36557;53.572;10.170;2023-08-31T04:05:41;12.00;99.90
50606;DHT22;36557;53.572;10.170;2023-08-31T04:08:07;12.00;99.90
50606;DHT22;36557;53.572;10.170;2023-08-31T04:10:33;12.00;99.90
50606;DHT22;36557;53.572;10.170;2023-08-31T04:12:59;12.00;99.90
50606;DHT22;36557;53.572;10.170;2023-08-31T04:15:24;11.90;99.90
50606;DHT22;36557;53.572;10.170;2023-08-31T04:17:50;11.90;99.90
50606;DHT22;36557;53.572;10.170;2023-08-31T04:20:16;11.90;99.90
50606;DHT22;36557;53.572;10.170;2023-08-31T04:22:41;11.80;99.90
50606;DHT22;36557;53.572;10.170;2023-08-31T04:25:07;11.70;99.90
50606;DHT22;36557;53.572;10.170;2023-08-31T04:27:33;11.80;99.90
50606;DHT22;36557;53.572;10.170;2023-08-31T04:30:00;11.70;99.90
50606;DHT22;36557;53.572;10.170;2023-08-31T04:32:26;11.70;99.90
50606;DHT22;36557;53.572;10.170;2023-08-31T04:34:52;11.70;99.90
50606;DHT22;36557;53.572;10.170;2023-08-31T04:37:18;11.70;99.90
50606;DHT22;36557;53.572;10.170;2023-08-31T04:39:44;11.70;99.90
50606;DHT22;36557;53.572;10.170;2023-08-31T04:42:09;11.80;99.90
50606;DHT22;36557;53.572;10.170;2023-08-31T04:44:35;11.80;99.90
50606;DHT22;36557;53.572;10.170;2023-08-31T04:47:01;11.70;99.90
50606;DHT22;36557;53.572;10.170;2023-08-31T04:49:27;11.80;99.90
50606;DHT22;36557;53.572;10.170;2023-08-31T04:51:53;11.80;99.90
50606;DHT22;36557;53.572;10.170;2023-08-31T04:54:18;11.80;99.90
50606;DHT22;36557;53.572;10.170;2023-08-31T04:56:44;11.80;99.90
50606;DHT22;36557;53.572;10.170;2023-08-31T04:59:10;11.80;99.90
50606;DHT22;36557;53.572;10.170;2023-08-31T05:01:35;11.80;99.90
50606;DHT22;36557;53.572;10.170;2023-08-31T05:04:02;11.80;99.90
50606;DHT22;36557;53.572;10.170;2023-08-31T05:06:28;11.80;99.90
50606;DHT22;36557;53.572;10.170;2023-08-31T05:08:54;11.80;99.90
50606;DHT22;36557;53.572;10.170;2023-08-31T05:11:20;11.90;99.90
50606;DHT22;36557;53.572;10.170;2023-08-31T05:13:47;11.90;99.90
50606;DHT22;36557;53.572;10.170;2023-08-31T05:16:13;12.00;99.90
50606;DHT22;36557;53.572;10.170;2023-08-31T05:18:39;12.00;99.90
50606;DHT22;36557;53.572;10.170;2023-08-31T05:21:06;12.10;99.90
50606;DHT22;36557;53.572;10.170;2023-08-31T05:23:31;12.20;99.90
50606;DHT22;36557;53.572;10.170;2023-08-31T05:25:58;12.10;99.90
50606;DHT22;36557;53.572;10.170;2023-08-31T05:28:24;12.20;99.90
50606;DHT22;36557;53.572;10.170;2023-08-31T05:30:50;12.20;99.90
50606;DHT22;36557;53.572;10.170;2023-08-31T05:33:17;12.20;99.90
50606;DHT22;36557;53.572;10.170;2023-08-31T05:35:43;12.30;99.90
50606;DHT22;36557;53.572;10.170;2023-08-31T05:38:09;12.30;99.90
50606;DHT22;36557;53.572;10.170;2023-08-31T05:40:34;12.30;99.90
50606;DHT22;36557;53.572;10.170;2023-08-31T05:43:00;12.30;99.90
50606;DHT22;36557;53.572;10.170;2023-08-31T05:45:26;12.30;99.90
50606;DHT22;36557;53.572;10.170;2023-08-31T05:47:51;12.40;99.90
50606;DHT22;36557;53.572;10.170;2023-08-31T05:50:17;12.50;99.90
50606;DHT22;36557;53.572;10.170;2023-08-31T05:52:43;12.60;99.90
50606;DHT22;36557;53.572;10.170;2023-08-31T05:55:10;12.50;99.90
50606;DHT22;36557;53.572;10.170;2023-08-31T05:57:35;12.60;99.90
50606;DHT22;36557;53.572;10.170;2023-08-31T06:00:04;12.60;99.90
50606;DHT22;36557;53.572;10.170;2023-08-31T06:02:29;12.70;99.90
50606;DHT22;36557;53.572;10.170;2023-08-31T06:04:55;12.80;99.90
50606;DHT22;36557;53.572;10.170;2023-08-31T06:07:21;12.80;99.90
50606;DHT22;36557;53.572;10.170;2023-08-31T06:09:47;12.90;99.90
50606;DHT22;36557;53.572;10.170;2023-08-31T06:12:14;12.90;99.90
50606;DHT22;36557;53.572;10.170;2023-08-31T06:14:39;12.90;99.90
50606;DHT22;36557;53.572;10.170;2023-08-31T06:17:05;13.10;99.90
50606;DHT22;36557;53.572;10.170;2023-08-31T06:19:30;13.00;99.90
50606;DHT22;36557;53.572;10.170;2023-08-31T06:21:56;13.10;99.90
50606;DHT22;36557;53.572;10.170;2023-08-31T06:24:22;13.20;99.90
50606;DHT22;36557;53.572;10.170;2023-08-31T06:26:47;13.30;99.90
50606;DHT22;36557;53.572;10.170;2023-08-31T06:29:13;13.20;99.90
50606;DHT22;36557;53.572;10.170;2023-08-31T06:31:39;13.30;99.90
50606;DHT22;36557;53.572;10.170;2023-08-31T06:34:05;13.50;99.90
50606;DHT22;36557;53.572;10.170;2023-08-31T06:36:31;13.60;99.90
50606;DHT22;36557;53.572;10.170;2023-08-31T06:38:56;13.50;99.90
50606;DHT22;36557;53.572;10.170;2023-08-31T06:41:22;13.50;99.90
50606;DHT22;36557;53.572;10.170;2023-08-31T06:43:48;13.70;99.90
50606;DHT22;36557;53.572;10.170;2023-08-31T06:46:13;13.80;99.90
50606;DHT22;36557;53.572;10.170;2023-08-31T06:48:39;13.80;99.90
50606;DHT22;36557;53.572;10.170;2023-08-31T06:51:05;13.90;99.90
50606;DHT22;36557;53.572;10.170;2023-08-31T06:53:30;13.80;99.90
50606;DHT22;36557;53.572;10.170;2023-08-31T06:55:59;13.80;99.90
50606;DHT22;36557;53.572;10.170;2023-08-31T06:58:24;13.80;99.90
50606;DHT22;36557;53.572;10.170;2023-08-31T07:00:50;13.90;99.90
50606;DHT22;36557;53.572;10.170;2023-08-31T07:03:16;13.90;99.90
50606;DHT22;36557;53.572;10.170;2023-08-31T07:05:42;14.10;99.90
50606;DHT22;36557;53.572;10.170;2023-08-31T07:08:08;14.10;99.90
50606;DHT22;36557;53.572;10.170;2023-08-31T07:10:34;14.20;99.90
50606;DHT22;36557;53.572;10.170;2023-08-31T07:13:04;14.20;99.90
50606;DHT22;36557;53.572;10.170;2023-08-31T07:15:30;14.30;99.90
50606;DHT22;36557;53.572;10.170;2023-08-31T07:17:56;14.40;99.90
50606;DHT22;36557;53.572;10.170;2023-08-31T07:20:22;14.50;99.90
50606;DHT22;36557;53.572;10.170;2023-08-31T07:22:48;14.70;99.90
50606;DHT22;36557;53.572;10.170;2023-08-31T07:25:13;14.90;99.90
50606;DHT22;36557;53.572;10.170;2023-08-31T07:27:40;14.90;99.90
50606;DHT22;36557;53.572;10.170;2023-08-31T07:30:06;14.90;99.90
50606;DHT22;36557;53.572;10.170;2023-08-31T07:32:32;15.00;99.90
50606;DHT22;36557;53.572;10.170;2023-08-31T07:34:58;15.00;99.90
50606;DHT22;36557;53.572;10.170;2023-08-31T07:37:24;15.00;99.90
50606;DHT22;36557;53.572;10.170;2023-08-31T07:39:50;15.20;99.90
50606;DHT22;36557;53.572;10.170;2023-08-31T07:42:16;15.20;99.90
50606;DHT22;36557;53.572;10.170;2023-08-31T07:44:42;15.30;99.90
50606;DHT22;36557;53.572;10.170;2023-08-31T07:47:09;15.50;99.90
50606;DHT22;36557;53.572;10.170;2023-08-31T07:49:35;15.60;99.90
50606;DHT22;36557;53.572;10.170;2023-08-31T07:52:01;15.60;99.90
50606;DHT22;36557;53.572;10.170;2023-08-31T07:54:28;15.60;99.90
50606;DHT22;36557;53.572;10.170;2023-08-31T07:56:54;15.60;99.90
50606;DHT22;36557;53.572;10.170;2023-08-31T07:59:19;15.60;99.90
50606;DHT22;36557;53.572;10.170;2023-08-31T08:01:46;15.60;99.90
50606;DHT22;36557;53.572;10.170;2023-08-31T08:04:11;15.60;99.90
50606;DHT22;36557;53.572;10.170;2023-08-31T08:06:37;15.70;99.90
50606;DHT22;36557;53.572;10.170;2023-08-31T08:09:03;15.80;99.90
50606;DHT22;36557;53.572;10.170;2023-08-31T08:11:30;16.00;99.90
50606;DHT22;36557;53.572;10.170;2023-08-31T08:13:56;16.10;99.90
50606;DHT22;36557;53.572;10.170;2023-08-31T08:16:22;16.30;99.90
50606;DHT22;36557;53.572;10.170;2023-08-31T08:18:47;16.40;99.90
50606;DHT22;36557;53.572;10.170;2023-08-31T08:21:13;16.40;99.90
50606;DHT22;36557;53.572;10.170;2023-08-31T08:23:39;15.80;99.90
50606;DHT22;36557;53.572;10.170;2023-08-31T08:26:04;15.60;99.90
50606;DHT22;36557;53.572;10.170;2023-08-31T08:28:30;15.70;99.90
50606;DHT22;36557;53.572;10.170;2023-08-31T08:30:56;16.20;99.90
50606;DHT22;36557;53.572;10.170;2023-08-31T08:33:22;16.60;99.90
50606;DHT22;36557;53.572;10.170;2023-08-31T08:35:48;16.70;99.90
50606;DHT22;36557;53.572;10.170;2023-08-31T08:38:13;17.00;99.90
50606;DHT22;36557;53.572;10.170;2023-08-31T08:40:39;17.00;99.90
50606;DHT22;36557;53.572;10.170;2023-08-31T08:43:08;17.10;99.90
50606;DHT22;36557;53.572;10.170;2023-08-31T08:45:38;16.90;99.90
50606;DHT22;36557;53.572;10.170;2023-08-31T08:48:08;16.60;99.90
50606;DHT22;36557;53.572;10.170;2023-08-31T08:50:36;16.40;99.90
50606;DHT22;36557;53.572;10.170;2023-08-31T08:53:05;16.40;99.90
50606;DHT22;36557;53.572;10.170;2023-08-31T08:55:32;16.30;99.90
50606;DHT22;36557;53.572;10.170;2023-08-31T08:57:58;16.40;99.90
50606;DHT22;36557;53.572;10.170;2023-08-31T09:00:29;16.60;99.90
50606;DHT22;36557;53.572;10.170;2023-08-31T09:02:55;16.90;99.90
50606;DHT22;36557;53.572;10.170;2023-08-31T09:05:22;17.20;99.90
50606;DHT22;36557;53.572;10.170;2023-08-31T09:10:35;17.00;99.90
50606;DHT22;36557;53.572;10.170;2023-08-31T09:13:01;16.80;99.90
50606;DHT22;36557;53.572;10.170;2023-08-31T09:15:36;16.70;99.90
50606;DHT22;36557;53.572;10.170;2023-08-31T09:18:02;16.40;99.90
50606;DHT22;36557;53.572;10.170;2023-08-31T09:20:28;16.40;99.90
50606;DHT22;36557;53.572;10.170;2023-08-31T09:22:56;16.80;99.90
50606;DHT22;36557;53.572;10.170;2023-08-31T09:25:21;16.80;99.90
50606;DHT22;36557;53.572;10.170;2023-08-31T09:27:48;16.60;99.90
50606;DHT22;36557;53.572;10.170;2023-08-31T09:30:14;16.40;99.90
50606;DHT22;36557;53.572;10.170;2023-08-31T09:32:39;16.40;99.90
50606;DHT22;36557;53.572;10.170;2023-08-31T09:35:11;16.30;99.90
50606;DHT22;36557;53.572;10.170;2023-08-31T09:37:37;16.40;99.90
50606;DHT22;36557;53.572;10.170;2023-08-31T09:40:03;16.30;99.90
50606;DHT22;36557;53.572;10.170;2023-08-31T09:42:38;16.30;99.90
50606;DHT22;36557;53.572;10.170;2023-08-31T09:45:04;16.10;99.90
50606;DHT22;36557;53.572;10.170;2023-08-31T09:47:30;16.00;99.90
50606;DHT22;36557;53.572;10.170;2023-08-31T09:49:57;16.10;99.90
50606;DHT22;36557;53.572;10.170;2023-08-31T09:52:24;15.90;99.90
50606;DHT22;36557;53.572;10.170;2023-08-31T09:54:51;16.00;99.90
50606;DHT22;36557;53.572;10.170;2023-08-31T09:57:20;16.00;99.90
50606;DHT22;36557;53.572;10.170;2023-08-31T09:59:47;16.20;99.90
50606;DHT22;36557;53.572;10.170;2023-08-31T10:02:14;16.80;99.90
50606;DHT22;36557;53.572;10.170;2023-08-31T10:04:42;17.40;99.90
50606;DHT22;36557;53.572;10.170;2023-08-31T10:07:08;17.80;99.90
50606;DHT22;36557;53.572;10.170;2023-08-31T10:09:35;18.10;99.90
50606;DHT22;36557;53.572;10.170;2023-08-31T10:12:04;18.70;99.90
50606;DHT22;36557;53.572;10.170;2023-08-31T10:14:30;19.00;99.90
50606;DHT22;36557;53.572;10.170;2023-08-31T10:16:56;19.20;99.90
50606;DHT22;36557;53.572;10.170;2023-08-31T10:19:23;18.30;99.90
50606;DHT22;36557;53.572;10.170;2023-08-31T10:21:49;18.00;99.90
50606;DHT22;36557;53.572;10.170;2023-08-31T10:24:15;17.50;99.90
50606;DHT22;36557;53.572;10.170;2023-08-31T10:26:40;17.30;99.90
50606;DHT22;36557;53.572;10.170;2023-08-31T10:29:06;17.70;99.90
50606;DHT22;36557;53.572;10.170;2023-08-31T10:31:50;18.00;99.90
50606;DHT22;36557;53.572;10.170;2023-08-31T10:34:16;17.70;99.90
50606;DHT22;36557;53.572;10.170;2023-08-31T10:36:45;17.80;99.90
50606;DHT22;36557;53.572;10.170;2023-08-31T10:39:14;18.10;99.90
50606;DHT22;36557;53.572;10.170;2023-08-31T10:41:41;18.10;99.90
50606;DHT22;36557;53.572;10.170;2023-08-31T10:44:27;18.40;99.90
50606;DHT22;36557;53.572;10.170;2023-08-31T10:46:54;18.30;99.90
50606;DHT22;36557;53.572;10.170;2023-08-31T10:49:21;18.60;99.90
50606;DHT22;36557;53.572;10.170;2023-08-31T10:51:57;18.90;99.90
50606;DHT22;36557;53.572;10.170;2023-08-31T10:54:33;19.10;99.90
50606;DHT22;36557;53.572;10.170;2023-08-31T10:57:04;19.30;99.90
50606;DHT22;36557;53.572;10.170;2023-08-31T10:59:44;19.40;99.90
50606;DHT22;36557;53.572;10.170;2023-08-31T11:02:26;19.60;99.90
50606;DHT22;36557;53.572;10.170;2023-08-31T11:05:13;20.20;99.90
50606;DHT22;36557;53.572;10.170;2023-08-31T11:07:49;20.30;99.90
50606;DHT22;36557;53.572;10.170;2023-08-31T11:10:25;19.70;99.90
50606;DHT22;36557;53.572;10.170;2023-08-31T11:12:55;19.10;99.90
50606;DHT22;36557;53.572;10.170;2023-08-31T11:15:25;19.30;99.90
50606;DHT22;36557;53.572;10.170;2023-08-31T11:17:53;19.60;99.90
50606;DHT22;36557;53.572;10.170;2023-08-31T11:20:21;19.50;99.90
50606;DHT22;36557;53.572;10.170;2023-08-31T11:22:48;20.00;99.90
50606;DHT22;36557;53.572;10.170;2023-08-31T11:25:21;20.10;99.90
50606;DHT22;36557;53.572;10.170;2023-08-31T11:27:56;20.50;99.20
50606;DHT22;36557;53.572;10.170;2023-08-31T11:30:24;20.60;98.90
50606;DHT22;36557;53.572;10.170;2023-08-31T11:32:53;20.90;98.30
50606;DHT22;36557;53.572;10.170;2023-08-31T11:35:20;20.80;98.20
50606;DHT22;36557;53.572;10.170;2023-08-31T11:37:50;20.50;96.80
50606;DHT22;36557;53.572;10.170;2023-08-31T11:40:16;20.80;98.10
50606;DHT22;36557;53.572;10.170;2023-08-31T11:42:42;21.10;98.50
50606;DHT22;36557;53.572;10.170;2023-08-31T11:45:08;20.90;97.20
50606;DHT22;36557;53.572;10.170;2023-08-31T11:47:35;21.20;98.30
50606;DHT22;36557;53.572;10.170;2023-08-31T11:50:01;21.20;98.60
50606;DHT22;36557;53.572;10.170;2023-08-31T11:52:31;21.50;97.80
50606;DHT22;36557;53.572;10.170;2023-08-31T11:54:57;21.90;97.00
50606;DHT22;36557;53.572;10.170;2023-08-31T11:57:26;21.80;96.70
50606;DHT22;36557;53.572;10.170;2023-08-31T11:59:52;20.80;96.80
50606;DHT22;36557;53.572;10.170;2023-08-31T12:02:19;20.10;97.80
50606;DHT22;36557;53.572;10.170;2023-08-31T12:04:45;20.10;99.00
50606;DHT22;36557;53.572;10.170;2023-08-31T12:07:11;19.30;98.70
50606;DHT22;36557;53.572;10.170;2023-08-31T12:09:37;19.30;98.90
50606;DHT22;36557;53.572;10.170;2023-08-31T12:12:03;19.30;98.90
50606;DHT22;36557;53.572;10.170;2023-08-31T12:14:33;19.20;99.60
50606;DHT22;36557;53.572;10.170;2023-08-31T12:17:07;18.50;98.90
50606;DHT22;36557;53.572;10.170;2023-08-31T12:19:35;18.90;99.30
50606;DHT22;36557;53.572;10.170;2023-08-31T12:22:01;19.10;99.30
50606;DHT22;36557;53.572;10.170;2023-08-31T12:24:28;19.00;99.60
50606;DHT22;36557;53.572;10.170;2023-08-31T12:26:53;19.30;99.90
50606;DHT22;36557;53.572;10.170;2023-08-31T12:29:20;20.20;99.90
50606;DHT22;36557;53.572;10.170;2023-08-31T12:31:46;20.90;98.30
50606;DHT22;36557;53.572;10.170;2023-08-31T12:34:12;21.20;98.10
50606;DHT22;36557;53.572;10.170;2023-08-31T12:36:38;21.40;97.40
50606;DHT22;36557;53.572;10.170;2023-08-31T12:39:05;21.00;96.50
50606;DHT22;36557;53.572;10.170;2023-08-31T12:41:34;20.90;97.20
50606;DHT22;36557;53.572;10.170;2023-08-31T12:44:00;20.60;96.70
50606;DHT22;36557;53.572;10.170;2023-08-31T12:46:26;21.10;97.10
50606;DHT22;36557;53.572;10.170;2023-08-31T12:48:51;20.80;96.60
50606;DHT22;36557;53.572;10.170;2023-08-31T12:51:18;20.00;97.50
50606;DHT22;36557;53.572;10.170;2023-08-31T12:53:44;19.50;97.70
50606;DHT22;36557;53.572;10.170;2023-08-31T12:56:10;19.00;98.60
50606;DHT22;36557;53.572;10.170;2023-08-31T12:58:36;18.30;98.00
50606;DHT22;36557;53.572;10.170;2023-08-31T13:01:01;17.70;98.00
50606;DHT22;36557;53.572;10.170;2023-08-31T13:03:27;16.80;99.90
50606;DHT22;36557;53.572;10.170;2023-08-31T13:05:53;16.10;99.90
50606;DHT22;36557;53.572;10.170;2023-08-31T13:08:19;15.70;99.90
50606;DHT22;36557;53.572;10.170;2023-08-31T13:10:51;15.60;99.90
50606;DHT22;36557;53.572;10.170;2023-08-31T13:13:18;15.40;99.90
50606;DHT22;36557;53.572;10.170;2023-08-31T13:15:48;15.20;99.90
50606;DHT22;36557;53.572;10.170;2023-08-31T13:18:14;15.30;99.90
50606;DHT22;36557;53.572;10.170;2023-08-31T13:20:40;15.20;99.90
50606;DHT22;36557;53.572;10.170;2023-08-31T13:23:06;15.60;99.90
50606;DHT22;36557;53.572;10.170;2023-08-31T13:25:32;16.20;99.90
50606;DHT22;36557;53.572;10.170;2023-08-31T13:27:58;16.80;99.90
50606;DHT22;36557;53.572;10.170;2023-08-31T13:30:23;17.40;99.90
50606;DHT22;36557;53.572;10.170;2023-08-31T13:32:49;17.90;99.90
50606;DHT22;36557;53.572;10.170;2023-08-31T13:35:16;17.90;99.90
50606;DHT22;36557;53.572;10.170;2023-08-31T13:37:41;17.90;99.90
50606;DHT22;36557;53.572;10.170;2023-08-31T13:40:07;17.90;99.90
50606;DHT22;36557;53.572;10.170;2023-08-31T13:42:35;17.80;99.90
50606;DHT22;36557;53.572;10.170;2023-08-31T13:45:06;17.70;99.90
50606;DHT22;36557;53.572;10.170;2023-08-31T13:47:31;18.20;99.90
50606;DHT22;36557;53.572;10.170;2023-08-31T13:49:57;18.20;99.90
50606;DHT22;36557;53.572;10.170;2023-08-31T13:52:23;18.10;99.90
50606;DHT22;36557;53.572;10.170;2023-08-31T13:54:50;18.40;99.90
50606;DHT22;36557;53.572;10.170;2023-08-31T13:57:15;18.40;99.90
50606;DHT22;36557;53.572;10.170;2023-08-31T13:59:43;18.80;99.90
50606;DHT22;36557;53.572;10.170;2023-08-31T14:02:09;18.70;99.90
50606;DHT22;36557;53.572;10.170;2023-08-31T14:04:35;18.60;99.90
50606;DHT22;36557;53.572;10.170;2023-08-31T14:07:01;18.50;99.90
50606;DHT22;36557;53.572;10.170;2023-08-31T14:09:27;18.40;99.90
50606;DHT22;36557;53.572;10.170;2023-08-31T14:11:53;18.60;99.90
50606;DHT22;36557;53.572;10.170;2023-08-31T14:14:22;18.80;99.90
50606;DHT22;36557;53.572;10.170;2023-08-31T14:16:49;19.20;99.90
50606;DHT22;36557;53.572;10.170;2023-08-31T14:19:15;19.20;99.90
50606;DHT22;36557;53.572;10.170;2023-08-31T14:21:41;19.20;99.90
50606;DHT22;36557;53.572;10.170;2023-08-31T14:24:07;19.00;99.90
50606;DHT22;36557;53.572;10.170;2023-08-31T14:26:32;19.60;99.90
50606;DHT22;36557;53.572;10.170;2023-08-31T14:28:58;19.50;99.90
50606;DHT22;36557;53.572;10.170;2023-08-31T14:31:24;19.30;99.90
50606;DHT22;36557;53.572;10.170;2023-08-31T14:33:50;18.70;99.90
50606;DHT22;36557;53.572;10.170;2023-08-31T14:36:17;18.50;99.90
50606;DHT22;36557;53.572;10.170;2023-08-31T14:38:43;18.70;99.90
50606;DHT22;36557;53.572;10.170;2023-08-31T14:41:11;18.20;99.90
50606;DHT22;36557;53.572;10.170;2023-08-31T14:43:37;18.10;99.90
50606;DHT22;36557;53.572;10.170;2023-08-31T14:46:02;17.90;99.90
50606;DHT22;36557;53.572;10.170;2023-08-31T14:48:30;17.80;99.90
50606;DHT22;36557;53.572;10.170;2023-08-31T14:50:55;17.60;99.90
50606;DHT22;36557;53.572;10.170;2023-08-31T14:53:24;17.70;99.90
50606;DHT22;36557;53.572;10.170;2023-08-31T14:55:50;17.90;99.90
50606;DHT22;36557;53.572;10.170;2023-08-31T14:58:16;17.80;99.90
50606;DHT22;36557;53.572;10.170;2023-08-31T15:00:42;17.90;99.90
50606;DHT22;36557;53.572;10.170;2023-08-31T15:03:08;17.90;99.90
50606;DHT22;36557;53.572;10.170;2023-08-31T15:05:34;17.70;99.90
50606;DHT22;36557;53.572;10.170;2023-08-31T15:08:03;17.80;99.90
50606;DHT22;36557;53.572;10.170;2023-08-31T15:10:29;17.80;99.90
50606;DHT22;36557;53.572;10.170;2023-08-31T15:12:55;17.90;99.90
50606;DHT22;36557;53.572;10.170;2023-08-31T15:15:27;17.80;99.90
50606;DHT22;36557;53.572;10.170;2023-08-31T15:17:53;17.70;99.90
50606;DHT22;36557;53.572;10.170;2023-08-31T15:20:19;17.60;99.90
50606;DHT22;36557;53.572;10.170;2023-08-31T15:22:45;17.70;99.90
50606;DHT22;36557;53.572;10.170;2023-08-31T15:25:11;17.90;99.90